Time;durP1;ratioP1;P1;durP2;ratioP2;P2;SDS_P1;SDS_P2;PMS_P1;PMS_P2;Temp;Humidity;BMP_temperature;BMP_pressure;BME280_temperature;BME280_humidity;BME280_pressure;Samples;Min_cycle;Max_cycle;Signal;HPM_P1;HPM_P2
2022/12/16 00:02:09;;;;;;;80.15;29.77;;;;;;;-3.03;100.00;98387.03;2232971;79;21002;-57
2022/12/16 00:05:10;;;;;;;69.10;27.73;;;;;;;-2.91;100.00;98385.18;2235552;79;21518;-57
2022/12/16 00:08:12;;;;;;;68.87;27.20;;;;;;;-3.03;100.00;98365.64;2216127;79;21046;-57
2022/12/16 00:11:14;;;;;;;74.25;28.27;;;;;;;-3.03;100.00;98363.94;2211365;79;21548;-57
2022/12/16 00:14:15;;;;;;;70.35;27.32;;;;;;;-3.04;100.00;98361.40;2224719;79;21036;-57
2022/12/16 00:17:17;;;;;;;73.55;28.52;;;;;;;-2.91;100.00;98378.31;2236809;79;21025;-57
2022/12/16 00:20:18;;;;;;;71.10;27.87;;;;;;;-2.87;100.00;98379.14;2224946;79;20965;-57
2022/12/16 00:23:20;;;;;;;71.20;29.00;;;;;;;-2.81;100.00;98381.61;2227905;79;20958;-57
2022/12/16 00:26:21;;;;;;;76.60;29.52;;;;;;;-2.89;100.00;98380.86;2232789;79;21503;-57
2022/12/16 00:29:23;;;;;;;68.30;27.42;;;;;;;-2.90;100.00;98377.87;2239526;79;20978;-57
2022/12/16 00:32:24;;;;;;;75.90;29.60;;;;;;;-3.02;100.00;98375.05;2243203;79;21052;-58
2022/12/16 00:35:25;;;;;;;68.28;26.77;;;;;;;-3.11;100.00;98371.33;2220856;79;21007;-58
2022/12/16 00:38:27;;;;;;;68.83;26.77;;;;;;;-3.08;100.00;98368.72;2228536;78;20996;-57
2022/12/16 00:41:28;;;;;;;71.00;28.30;;;;;;;-3.11;100.00;98364.91;2238304;79;20966;-57
2022/12/16 00:44:30;;;;;;;76.02;28.87;;;;;;;-3.16;100.00;98370.95;2218507;79;21055;-57
2022/12/16 00:47:31;;;;;;;68.93;27.20;;;;;;;-3.34;100.00;98386.57;2237554;79;21464;-57
2022/12/16 00:50:33;;;;;;;70.30;28.27;;;;;;;-3.38;100.00;98372.92;2233287;79;20958;-57
2022/12/16 00:53:34;;;;;;;69.67;25.60;;;;;;;-3.38;100.00;98374.64;2221912;79;21079;-58
2022/12/16 00:56:36;;;;;;;89.85;37.50;;;;;;;-3.27;100.00;98372.80;2230994;79;21011;-57
2022/12/16 00:59:37;;;;;;;78.33;33.35;;;;;;;-3.29;100.00;98361.70;2228772;79;21044;-57
2022/12/16 01:02:39;;;;;;;79.70;30.77;;;;;;;-3.23;100.00;98345.38;2236405;79;21509;-57
2022/12/16 01:05:41;;;;;;;66.90;27.45;;;;;;;-3.18;100.00;98348.30;2236730;79;21027;-57
2022/12/16 01:11:46;;;;;;;66.00;25.92;;;;;;;-3.09;100.00;98350.34;2201026;78;21059;-57
2022/12/16 01:14:48;;;;;;;67.40;26.52;;;;;;;-2.95;100.00;98336.88;2230675;79;21056;-57
2022/12/16 01:17:50;;;;;;;67.92;26.57;;;;;;;-3.11;100.00;98319.56;2214616;79;21118;-57
2022/12/16 01:20:52;;;;;;;70.37;28.00;;;;;;;-3.27;100.00;98321.94;2224091;79;21009;-57
2022/12/16 01:23:53;;;;;;;68.83;27.48;;;;;;;-3.34;100.00;98310.91;2230204;79;20989;-57
2022/12/16 01:26:54;;;;;;;68.97;27.37;;;;;;;-3.35;100.00;98313.05;2234099;79;20953;-57
2022/12/16 01:29:56;;;;;;;70.13;28.27;;;;;;;-3.23;100.00;98312.89;2211778;79;20966;-57
2022/12/16 01:32:57;;;;;;;71.37;26.12;;;;;;;-3.24;100.00;98304.78;2224612;79;21029;-57
2022/12/16 01:35:59;;;;;;;69.30;26.95;;;;;;;-3.35;100.00;98298.53;2223767;79;21524;-57
2022/12/16 01:39:00;;;;;;;73.90;26.40;;;;;;;-3.42;100.00;98299.48;2226470;79;21074;-57
2022/12/16 01:42:02;;;;;;;68.35;26.35;;;;;;;-3.30;100.00;98290.77;2219542;79;21020;-57
2022/12/16 01:45:03;;;;;;;59.95;24.95;;;;;;;-3.31;100.00;98295.47;2240751;78;21028;-57
2022/12/16 01:48:04;;;;;;;64.58;26.25;;;;;;;-3.23;100.00;98301.35;2238517;79;20995;-57
2022/12/16 01:51:06;;;;;;;67.47;26.10;;;;;;;-3.17;100.00;98302.54;2223728;79;21471;-58
2022/12/16 01:54:07;;;;;;;56.57;22.73;;;;;;;-3.21;100.00;98289.34;2230997;79;20976;-57
2022/12/16 01:57:09;;;;;;;66.97;24.87;;;;;;;-3.21;100.00;98289.34;2234997;79;21031;-57
2022/12/16 02:00:11;;;;;;;65.28;24.63;;;;;;;-3.23;100.00;98294.07;2242505;79;22462;-57
2022/12/16 02:03:13;;;;;;;68.30;26.23;;;;;;;-3.17;100.00;98283.30;2227378;79;21602;-57
2022/12/16 02:06:14;;;;;;;64.42;25.65;;;;;;;-3.29;100.00;98277.05;2243005;79;21011;-57
2022/12/16 02:09:16;;;;;;;63.70;25.97;;;;;;;-3.27;100.00;98270.64;2236090;79;21114;-57
2022/12/16 02:12:18;;;;;;;67.72;26.17;;;;;;;-3.22;100.00;98273.97;2213684;79;21072;-57
2022/12/16 02:15:19;;;;;;;71.90;27.45;;;;;;;-3.31;100.00;98274.50;2224897;79;20987;-58
2022/12/16 02:18:21;;;;;;;63.23;24.32;;;;;;;-3.25;100.00;98274.86;2226120;79;21635;-57
2022/12/16 02:21:22;;;;;;;62.98;25.25;;;;;;;-3.27;100.00;98273.20;2236823;79;20945;-57
2022/12/16 02:24:23;;;;;;;67.65;25.10;;;;;;;-3.27;100.00;98268.91;2227145;79;21527;-58
2022/12/16 02:27:25;;;;;;;66.70;26.70;;;;;;;-3.26;100.00;98264.20;2233029;79;21008;-58
2022/12/16 02:30:26;;;;;;;66.42;27.32;;;;;;;-3.26;100.00;98257.80;2215628;79;21015;-57
2022/12/16 02:33:28;;;;;;;72.95;25.82;;;;;;;-3.30;100.00;98242.03;2235831;79;21518;-57
2022/12/16 02:36:29;;;;;;;58.83;24.65;;;;;;;-3.26;100.00;98232.55;2236843;79;20976;-57
2022/12/16 02:39:31;;;;;;;67.82;25.30;;;;;;;-3.25;100.00;98233.81;2223079;79;21510;-57
2022/12/16 02:42:32;;;;;;;65.78;25.68;;;;;;;-3.26;100.00;98235.12;2232768;79;20982;-57
2022/12/16 02:45:33;;;;;;;69.42;26.73;;;;;;;-3.24;100.00;98226.54;2234213;79;21003;-58
2022/12/16 02:48:35;;;;;;;64.55;24.70;;;;;;;-3.13;100.00;98217.41;2223342;79;21116;-57
2022/12/16 02:51:37;;;;;;;70.17;26.42;;;;;;;-3.20;100.00;98210.23;2238882;79;21063;-57
2022/12/16 02:54:39;;;;;;;65.70;23.92;;;;;;;-3.15;100.00;98200.77;2240035;79;21000;-57
2022/12/16 02:57:40;;;;;;;61.75;25.68;;;;;;;-3.10;100.00;98201.09;2231821;79;21540;-57
2022/12/16 03:00:41;;;;;;;65.37;25.75;;;;;;;-3.08;100.00;98201.94;2229650;79;21429;-57
2022/12/16 03:03:43;;;;;;;59.90;24.32;;;;;;;-2.98;100.00;98203.48;2234013;79;20977;-57
2022/12/16 03:06:45;;;;;;;61.40;24.43;;;;;;;-2.95;100.00;98203.42;2245588;79;21520;-57
2022/12/16 03:09:46;;;;;;;56.67;23.97;;;;;;;-2.94;100.00;98183.31;2226603;79;21024;-57
2022/12/16 03:12:48;;;;;;;66.87;25.80;;;;;;;-2.98;100.00;98178.66;2235620;79;21526;-57
2022/12/16 03:15:49;;;;;;;61.18;24.43;;;;;;;-2.96;100.00;98165.79;2246784;79;21134;-57
2022/12/16 03:18:51;;;;;;;59.08;22.85;;;;;;;-2.96;100.00;98156.81;2219096;79;21543;-57
2022/12/16 03:21:52;;;;;;;62.10;25.10;;;;;;;-2.89;100.00;98153.70;2228355;79;20973;-57
2022/12/16 03:24:54;;;;;;;61.48;23.87;;;;;;;-3.05;100.00;98137.73;2234419;79;21044;-57
2022/12/16 03:27:55;;;;;;;56.88;22.40;;;;;;;-3.19;100.00;98126.41;2235799;79;20990;-57
2022/12/16 03:30:57;;;;;;;60.43;22.10;;;;;;;-3.17;100.00;98128.09;2239476;79;21000;-57
2022/12/16 03:33:58;;;;;;;57.03;24.07;;;;;;;-3.17;100.00;98123.41;2232904;79;21027;-58
2022/12/16 03:37:00;;;;;;;62.70;24.70;;;;;;;-3.16;100.00;98131.48;2215102;79;21000;-57
2022/12/16 03:40:01;;;;;;;56.15;20.92;;;;;;;-3.19;100.00;98131.13;2244008;79;21487;-57
2022/12/16 03:43:03;;;;;;;55.17;22.55;;;;;;;-3.19;100.00;98136.67;2243642;78;20992;-57
2022/12/16 03:46:05;;;;;;;56.83;22.42;;;;;;;-3.20;100.00;98130.70;2274827;78;21567;-57
2022/12/16 03:49:06;;;;;;;62.90;24.72;;;;;;;-3.18;100.00;98116.13;2272354;78;21029;-57
2022/12/16 03:52:08;;;;;;;62.23;25.90;;;;;;;-3.14;100.00;98128.03;2236867;79;21003;-57
2022/12/16 03:55:11;;;;;;;56.92;22.65;;;;;;;-3.07;100.00;98127.95;2238531;79;21120;-57
2022/12/16 03:58:12;;;;;;;54.40;21.93;;;;;;;-3.13;100.00;98116.07;2233480;79;21588;-58
2022/12/16 04:01:14;;;;;;;57.60;22.85;;;;;;;-3.18;100.00;98114.84;2243388;79;20993;-57
2022/12/16 04:04:15;;;;;;;60.45;23.42;;;;;;;-3.15;100.00;98110.09;2239198;79;21502;-57
2022/12/16 04:24:17;;;;;;;60.03;23.10;;;;;;;-3.08;100.00;98103.98;2214769;79;21019;-57
2022/12/16 04:25:37;;;;;;;57.58;22.42;;;;;;;-2.96;100.00;98090.95;2212897;79;21004;-57
2022/12/16 04:28:38;;;;;;;56.83;22.00;;;;;;;-3.00;100.00;98090.59;2239113;79;20965;-57
2022/12/16 04:31:40;;;;;;;55.57;22.53;;;;;;;-2.92;100.00;98087.87;2243752;79;20969;-57
2022/12/16 04:34:41;;;;;;;57.37;22.90;;;;;;;-2.88;100.00;98084.83;2224747;79;21285;-57
